Rio Verde de Mato Grosso, Brazil
Current Conditions -  °F | °C
As of 5:10 PM on Sunday 21 Dec 2014 (Local Time) from SBCG Reporting Station
Rain Showers Rain Showers  
Wind Chill: 84°   Ceiling: Unl
Heat Index: 88°   Visibility: 6mi
Dew Point: 70°   Wind: 18mph
Humidity: 62%   Direction: 330°NNW
Pressure: 29.74"   Gusts: 30mph
Location:  18.92°S, 54.84°W
Report Text: SBCG 212010Z 33016G26KT 9999 VCSH SCT033 FEW040TCU 29/21 Q1007
Loading
Personal Weather Stations






























Interactive Weather Map New forecast layout! Learn more

10-Day Weather Forecast

Advertisements
Track Severe Weather on mobile